Time;durP1;ratioP1;P1;durP2;ratioP2;P2;SDS_P1;SDS_P2;PMS_P1;PMS_P2;Temp;Humidity;BMP_temperature;BMP_pressure;BME280_temperature;BME280_humidity;BME280_pressure;Samples;Min_cycle;Max_cycle;Signal;HPM_P1;HPM_P2
2022/01/30 00:02:25;;;;;;;23.63;3.97;;;7.40;97.80;;;;;;4979644;28;20093;-71
2022/01/30 00:04:51;;;;;;;27.48;4.10;;;7.40;97.90;;;;;;4965931;28;20147;-71
2022/01/30 00:07:16;;;;;;;18.43;4.53;;;7.40;97.90;;;;;;4990112;28;20066;-70
2022/01/30 00:09:42;;;;;;;18.73;4.23;;;7.30;98.40;;;;;;4979108;28;20418;-70
2022/01/30 00:12:08;;;;;;;16.30;3.50;;;7.30;98.90;;;;;;4985696;28;20077;-70
2022/01/30 00:14:36;;;;;;;20.70;3.50;;;7.30;98.60;;;;;;4958630;28;20322;-71
2022/01/30 00:17:21;;;;;;;17.42;3.00;;;7.30;98.00;;;;;;4980647;28;20066;-70
2022/01/30 00:19:55;;;;;;;19.45;2.95;;;7.30;97.60;;;;;;4960915;28;20466;-70
2022/01/30 00:24:59;;;;;;;19.35;3.22;;;7.20;97.60;;;;;;4980165;28;20414;-70
2022/01/30 00:27:31;;;;;;;26.88;5.30;;;7.30;97.80;;;;;;4964273;28;20054;-70
2022/01/30 00:29:57;;;;;;;33.70;3.20;;;7.30;98.80;;;;;;4965150;28;20427;-70
2022/01/30 00:32:23;;;;;;;25.48;4.63;;;7.20;99.90;;;;;;4983397;28;20045;-71
2022/01/30 00:34:49;;;;;;;24.08;4.85;;;7.20;99.90;;;;;;4963975;28;20048;-71
2022/01/30 00:37:16;;;;;;;16.50;3.70;;;7.10;99.90;;;;;;4973422;28;20026;-71
2022/01/30 00:39:43;;;;;;;13.48;2.55;;;7.00;99.90;;;;;;4963446;28;20042;-70
2022/01/30 00:42:09;;;;;;;15.23;2.13;;;6.90;99.90;;;;;;4965759;28;20052;-70
2022/01/30 00:44:34;;;;;;;10.95;2.53;;;6.60;99.90;;;;;;4977724;28;20030;-70
2022/01/30 00:47:03;;;;;;;11.70;2.23;;;6.50;99.90;;;;;;4982159;28;20041;-71
2022/01/30 00:49:29;;;;;;;16.95;1.70;;;6.40;99.90;;;;;;4960968;28;20066;-71
2022/01/30 00:51:54;;;;;;;21.35;2.70;;;6.30;99.90;;;;;;4982534;28;20039;-71
2022/01/30 00:54:20;;;;;;;20.73;4.57;;;6.20;99.90;;;;;;4982927;28;20089;-71
2022/01/30 00:56:45;;;;;;;14.70;2.80;;;6.20;99.90;;;;;;4982433;28;20138;-71
2022/01/30 00:59:11;;;;;;;27.27;3.63;;;6.10;99.90;;;;;;4982987;28;20044;-70
2022/01/30 01:01:37;;;;;;;22.43;3.73;;;6.10;99.90;;;;;;4983211;28;20038;-71
2022/01/30 01:04:02;;;;;;;23.00;3.80;;;6.10;99.90;;;;;;4988180;28;20049;-71
2022/01/30 01:06:28;;;;;;;24.27;2.97;;;6.10;99.90;;;;;;4967794;28;20530;-71
2022/01/30 01:09:00;;;;;;;26.93;3.57;;;6.10;99.90;;;;;;4965194;28;20149;-70
2022/01/30 01:11:56;;;;;;;22.70;3.35;;;6.10;99.90;;;;;;4962982;28;20084;-71
2022/01/30 01:25:10;;;;;;;19.98;3.58;;;6.10;99.90;;;;;;4965833;28;20351;-73
2022/01/30 01:27:36;;;;;;;23.87;3.20;;;6.10;99.90;;;;;;4971545;28;20187;-71
2022/01/30 01:30:01;;;;;;;26.17;4.20;;;6.10;99.90;;;;;;4978942;28;20038;-72
2022/01/30 01:32:27;;;;;;;14.17;3.20;;;6.10;99.90;;;;;;4976848;28;20081;-71
2022/01/30 01:34:53;;;;;;;26.07;4.20;;;6.20;99.90;;;;;;4982272;28;20530;-76
2022/01/30 01:37:18;;;;;;;16.57;3.67;;;6.20;99.90;;;;;;4965302;28;20088;-71
2022/01/30 01:39:44;;;;;;;21.77;4.33;;;6.20;99.90;;;;;;4978303;28;20038;-71
2022/01/30 01:42:10;;;;;;;20.80;3.90;;;6.20;99.90;;;;;;4965286;28;20132;-71
2022/01/30 01:44:41;;;;;;;22.87;4.53;;;6.30;99.90;;;;;;4981214;28;20038;-77
2022/01/30 01:47:09;;;;;;;24.38;4.40;;;6.30;99.90;;;;;;4960572;28;20558;-71
2022/01/30 01:49:35;;;;;;;25.65;4.00;;;6.30;99.90;;;;;;4956334;28;20043;-71
2022/01/30 01:54:43;;;;;;;19.65;3.60;;;6.20;99.90;;;;;;4974364;28;20260;-70
2022/01/30 01:57:09;;;;;;;18.80;3.38;;;6.30;99.90;;;;;;4981990;28;20726;-71
2022/01/30 01:59:35;;;;;;;22.60;2.90;;;6.30;99.90;;;;;;4962685;28;20042;-71
2022/01/30 02:02:02;;;;;;;26.27;6.23;;;6.30;99.90;;;;;;4976879;28;20282;-71
2022/01/30 02:04:28;;;;;;;16.52;3.25;;;6.30;99.90;;;;;;4962262;28;20049;-71
2022/01/30 02:07:08;;;;;;;30.15;4.00;;;6.30;99.90;;;;;;4978293;28;20651;-71
2022/01/30 02:09:34;;;;;;;22.77;3.95;;;6.40;99.90;;;;;;4982850;28;20465;-70
2022/01/30 02:12:01;;;;;;;39.60;3.90;;;6.50;99.90;;;;;;4983290;28;20181;-71
2022/01/30 02:14:45;;;;;;;21.48;4.15;;;6.50;99.90;;;;;;4976606;28;20046;-71
2022/01/30 02:28:08;;;;;;;19.20;3.40;;;6.60;99.90;;;;;;4987659;23;20331;-73
2022/01/30 02:30:36;;;;;;;22.25;3.85;;;6.60;99.90;;;;;;4941921;28;20043;-73
2022/01/30 02:33:02;;;;;;;18.05;3.53;;;6.60;99.90;;;;;;4940385;28;20050;-73
2022/01/30 02:35:28;;;;;;;29.15;4.43;;;6.60;99.90;;;;;;4945220;28;20070;-72
2022/01/30 02:37:56;;;;;;;17.60;3.15;;;6.60;99.90;;;;;;4940178;28;20058;-72
2022/01/30 02:40:22;;;;;;;24.95;3.42;;;6.50;99.90;;;;;;4940927;28;20057;-72
2022/01/30 02:42:53;;;;;;;26.93;6.13;;;6.50;99.90;;;;;;4940663;28;20035;-72
2022/01/30 02:45:21;;;;;;;22.35;3.90;;;6.50;99.90;;;;;;4959169;28;20535;-72
2022/01/30 02:47:57;;;;;;;17.77;3.33;;;6.50;99.90;;;;;;4941020;28;20122;-73
2022/01/30 02:50:36;;;;;;;18.73;3.17;;;6.50;99.90;;;;;;4948452;28;20039;-72
2022/01/30 02:53:06;;;;;;;21.15;2.67;;;6.50;99.90;;;;;;4942221;28;20306;-72
2022/01/30 02:55:31;;;;;;;29.33;2.97;;;6.40;99.90;;;;;;4958895;28;20129;-72
2022/01/30 02:57:57;;;;;;;22.97;2.87;;;6.40;99.90;;;;;;4949828;28;20159;-72
2022/01/30 03:00:23;;;;;;;17.13;3.40;;;6.30;99.90;;;;;;4944325;28;20498;-72
2022/01/30 03:02:48;;;;;;;29.33;3.87;;;6.30;99.90;;;;;;4945368;28;20122;-72
2022/01/30 03:05:14;;;;;;;13.10;2.93;;;6.30;99.90;;;;;;4960652;28;20035;-73
2022/01/30 03:07:39;;;;;;;21.00;3.57;;;6.30;99.90;;;;;;4955239;28;20042;-74
2022/01/30 03:10:05;;;;;;;33.10;4.50;;;6.20;99.90;;;;;;4941320;28;20373;-73
2022/01/30 03:12:31;;;;;;;38.78;6.28;;;6.20;99.90;;;;;;4943726;28;20058;-73
2022/01/30 03:14:56;;;;;;;27.00;3.83;;;6.30;99.90;;;;;;4941298;28;20069;-73
2022/01/30 03:17:22;;;;;;;22.70;3.93;;;6.30;99.90;;;;;;4948199;28;20523;-73
2022/01/30 03:19:48;;;;;;;32.07;5.37;;;6.30;99.90;;;;;;4964086;28;20071;-72
2022/01/30 03:22:13;;;;;;;21.70;5.33;;;6.30;99.90;;;;;;4963221;28;20483;-72
2022/01/30 03:24:39;;;;;;;35.50;5.43;;;6.30;99.90;;;;;;4944066;28;20057;-73
2022/01/30 03:27:07;;;;;;;25.40;3.80;;;6.30;99.90;;;;;;4958808;28;20038;-73
2022/01/30 03:29:32;;;;;;;28.05;4.53;;;6.30;99.90;;;;;;4942269;28;20079;-72
2022/01/30 03:31:58;;;;;;;24.48;5.45;;;6.30;99.90;;;;;;4937999;28;20125;-73
2022/01/30 03:34:24;;;;;;;33.13;4.95;;;6.30;99.90;;;;;;4962194;28;20039;-73
2022/01/30 03:36:50;;;;;;;29.00;4.37;;;6.40;99.90;;;;;;4942915;28;20054;-72
2022/01/30 03:39:16;;;;;;;27.50;6.88;;;6.30;99.90;;;;;;4930476;28;20057;-72
2022/01/30 03:41:42;;;;;;;31.63;5.03;;;6.40;99.90;;;;;;4960539;28;20449;-72
2022/01/30 03:44:07;;;;;;;30.17;4.83;;;6.40;99.90;;;;;;4962267;28;20066;-75
2022/01/30 03:46:33;;;;;;;24.33;4.53;;;6.40;99.90;;;;;;4966522;28;20523;-73
2022/01/30 03:48:58;;;;;;;30.80;4.83;;;6.40;99.90;;;;;;4947425;28;20155;-73
2022/01/30 03:51:24;;;;;;;31.67;4.37;;;6.40;99.90;;;;;;4932079;28;20452;-73
2022/01/30 03:53:49;;;;;;;30.53;5.10;;;6.40;99.90;;;;;;4958801;28;20035;-73
2022/01/30 03:56:15;;;;;;;29.30;5.50;;;6.40;99.90;;;;;;4947226;28;20074;-72
2022/01/30 03:58:40;;;;;;;35.23;6.73;;;6.50;99.90;;;;;;4945179;28;20042;-73
2022/01/30 04:01:06;;;;;;;26.87;5.17;;;6.50;99.90;;;;;;4961596;28;20142;-73
2022/01/30 04:03:32;;;;;;;37.10;5.93;;;6.50;99.90;;;;;;4943146;28;20039;-72
2022/01/30 04:05:58;;;;;;;27.47;5.03;;;6.50;99.90;;;;;;4960269;28;20575;-72
2022/01/30 04:08:23;;;;;;;31.07;5.93;;;6.50;99.90;;;;;;4962289;28;20503;-73
2022/01/30 04:10:49;;;;;;;21.63;4.50;;;6.50;99.90;;;;;;4943776;28;20146;-73
2022/01/30 04:13:15;;;;;;;27.83;3.83;;;6.50;99.90;;;;;;4945462;28;20066;-72
2022/01/30 04:15:41;;;;;;;35.17;4.13;;;6.40;99.90;;;;;;4958133;28;20260;-72
2022/01/30 04:18:06;;;;;;;27.93;3.97;;;6.40;99.90;;;;;;4948682;28;20102;-72
2022/01/30 04:20:32;;;;;;;24.60;5.13;;;6.40;99.90;;;;;;4960807;28;20128;-73
2022/01/30 04:23:01;;;;;;;37.90;6.65;;;6.50;99.90;;;;;;4967320;28;20038;-73
2022/01/30 04:25:27;;;;;;;25.92;4.30;;;6.50;99.90;;;;;;4940672;28;20051;-72
2022/01/30 04:27:52;;;;;;;32.00;4.80;;;6.50;99.90;;;;;;4961651;28;20039;-72
2022/01/30 04:30:18;;;;;;;31.70;4.60;;;6.50;99.90;;;;;;4959534;28;20043;-73
2022/01/30 04:32:44;;;;;;;20.15;4.47;;;6.50;99.90;;;;;;4951126;28;20069;-74
2022/01/30 04:35:17;;;;;;;23.35;4.85;;;6.60;99.90;;;;;;4942261;28;20054;-73
2022/01/30 04:54:42;;;;;;;23.55;4.45;;;6.60;97.70;;;;;;4941847;28;20042;-72
2022/01/30 04:59:49;;;;;;;27.02;5.13;;;6.50;95.50;;;;;;4952439;28;20104;-73
2022/01/30 05:05:34;;;;;;;32.38;5.88;;;6.50;96.40;;;;;;4938280;28;20219;-72
2022/01/30 05:07:56;;;;;;;31.77;6.20;;;6.50;96.10;;;;;;4943619;28;20046;-73
2022/01/30 05:10:21;;;;;;;31.45;5.57;;;6.50;96.10;;;;;;4944486;28;20046;-72
2022/01/30 05:12:51;;;;;;;26.93;5.30;;;6.50;95.80;;;;;;4956706;28;20791;-73
2022/01/30 05:15:19;;;;;;;29.00;5.03;;;6.50;95.30;;;;;;4959127;28;20097;-73
2022/01/30 05:17:44;;;;;;;28.90;5.32;;;6.50;96.20;;;;;;4938358;28;20447;-73
2022/01/30 05:20:11;;;;;;;39.53;6.07;;;6.50;96.30;;;;;;4957400;28;20027;-73
2022/01/30 05:22:37;;;;;;;36.58;6.03;;;6.50;96.10;;;;;;4954245;28;20105;-73
2022/01/30 05:25:03;;;;;;;32.53;5.05;;;6.40;96.60;;;;;;4955281;28;20244;-72
2022/01/30 05:27:29;;;;;;;32.38;5.28;;;6.40;96.10;;;;;;4949362;28;20062;-73
2022/01/30 05:29:55;;;;;;;36.28;6.07;;;6.40;95.30;;;;;;4941705;28;20058;-72
2022/01/30 05:32:20;;;;;;;31.27;4.75;;;6.40;94.80;;;;;;4941327;28;20511;-72
2022/01/30 05:34:47;;;;;;;39.27;7.30;;;6.30;94.50;;;;;;4959232;28;20459;-73
2022/01/30 05:37:17;;;;;;;34.53;4.82;;;6.30;94.70;;;;;;4944467;28;20089;-73
2022/01/30 05:39:43;;;;;;;35.72;5.47;;;6.30;94.40;;;;;;4945976;28;20045;-72
2022/01/30 05:42:09;;;;;;;30.50;4.95;;;6.30;93.40;;;;;;4935597;28;20419;-72
2022/01/30 05:44:53;;;;;;;;;;;6.30;93.00;;;;;;4959094;28;20442;-72
2022/01/30 05:47:31;;;;;;;27.73;5.35;;;6.30;91.60;;;;;;4942203;28;19918;-72
2022/01/30 05:49:57;;;;;;;25.15;5.05;;;6.20;92.30;;;;;;4934144;28;20043;-72
2022/01/30 05:52:24;;;;;;;33.13;5.32;;;6.20;92.40;;;;;;4941132;28;20396;-72
2022/01/30 05:54:50;;;;;;;35.92;4.57;;;6.20;92.30;;;;;;4960801;28;20046;-73
2022/01/30 05:57:16;;;;;;;29.13;4.72;;;6.20;92.70;;;;;;4949919;28;20089;-72
2022/01/30 05:59:41;;;;;;;38.60;6.00;;;6.20;92.30;;;;;;4928854;28;20150;-72
2022/01/30 06:02:07;;;;;;;28.37;5.77;;;6.30;91.90;;;;;;4944801;28;20125;-72
2022/01/30 06:04:33;;;;;;;28.63;4.40;;;6.30;92.30;;;;;;4946028;28;20046;-73
2022/01/30 06:07:00;;;;;;;34.30;5.67;;;6.30;92.50;;;;;;4937993;28;20043;-72
2022/01/30 06:09:26;;;;;;;24.85;5.32;;;6.30;92.60;;;;;;4944824;28;20047;-73
2022/01/30 06:11:52;;;;;;;23.37;4.50;;;6.40;92.20;;;;;;4960098;28;20042;-72
2022/01/30 06:14:19;;;;;;;26.77;5.93;;;6.40;91.00;;;;;;4956509;28;20050;-74
2022/01/30 06:16:44;;;;;;;35.85;5.53;;;6.50;90.80;;;;;;4953543;28;20294;-73
2022/01/30 06:19:13;;;;;;;31.63;6.63;;;6.40;90.80;;;;;;4935080;28;20494;-72
2022/01/30 06:21:38;;;;;;;33.00;6.05;;;6.40;91.60;;;;;;4957725;28;20050;-73
2022/01/30 06:24:07;;;;;;;25.35;4.15;;;6.40;91.00;;;;;;4961490;28;20035;-72
2022/01/30 06:26:32;;;;;;;28.27;7.07;;;6.40;90.50;;;;;;4937346;28;20049;-72
2022/01/30 06:28:58;;;;;;;33.30;5.27;;;6.40;90.40;;;;;;4937092;28;20088;-73
2022/01/30 06:31:24;;;;;;;27.37;5.40;;;6.40;90.30;;;;;;4944839;28;20102;-73
2022/01/30 06:33:50;;;;;;;36.33;4.77;;;6.40;90.70;;;;;;4959345;28;20402;-72
2022/01/30 06:36:16;;;;;;;27.15;6.00;;;6.30;91.00;;;;;;4938709;28;20122;-71
2022/01/30 06:38:41;;;;;;;34.43;5.67;;;6.30;91.30;;;;;;4956714;28;20544;-72
2022/01/30 06:41:07;;;;;;;37.13;5.33;;;6.40;91.30;;;;;;4953769;28;20059;-72
2022/01/30 06:43:32;;;;;;;30.10;6.10;;;6.40;92.00;;;;;;4942946;28;20042;-71
2022/01/30 06:45:58;;;;;;;26.37;4.27;;;6.40;92.20;;;;;;4941004;28;20047;-71
2022/01/30 06:48:23;;;;;;;34.20;6.00;;;6.40;92.60;;;;;;4944699;28;20613;-72
2022/01/30 06:50:49;;;;;;;25.13;5.87;;;6.50;92.70;;;;;;4957526;28;20043;-72
2022/01/30 06:53:15;;;;;;;31.13;4.77;;;6.50;93.00;;;;;;4960987;28;20126;-71
2022/01/30 06:55:42;;;;;;;38.20;6.90;;;6.50;93.00;;;;;;4939541;28;20038;-72
2022/01/30 06:58:08;;;;;;;44.85;6.75;;;6.60;92.50;;;;;;4960824;28;20482;-73
2022/01/30 07:00:34;;;;;;;28.00;6.57;;;6.60;92.30;;;;;;4962501;28;20051;-72
2022/01/30 07:03:00;;;;;;;29.30;4.88;;;6.60;92.40;;;;;;4939890;28;20083;-72
2022/01/30 07:05:26;;;;;;;23.70;5.35;;;6.50;92.50;;;;;;4944361;28;20447;-72
2022/01/30 07:07:52;;;;;;;29.33;6.47;;;6.50;92.40;;;;;;4943954;28;20046;-73
2022/01/30 07:10:19;;;;;;;37.03;5.70;;;6.50;91.90;;;;;;4947570;28;20042;-72
2022/01/30 07:12:45;;;;;;;38.85;7.18;;;6.50;91.20;;;;;;4942502;28;20602;-72
2022/01/30 07:15:11;;;;;;;57.73;6.97;;;6.50;90.40;;;;;;4962130;28;20130;-72
2022/01/30 07:17:36;;;;;;;31.50;4.77;;;6.50;89.80;;;;;;4964498;28;20043;-72
2022/01/30 07:20:04;;;;;;;39.10;5.20;;;6.50;88.40;;;;;;4944543;28;20393;-72
2022/01/30 07:22:29;;;;;;;30.45;5.85;;;6.50;86.00;;;;;;4962502;28;20038;-72
2022/01/30 07:24:55;;;;;;;28.93;6.20;;;6.50;87.30;;;;;;4960943;28;20047;-72
2022/01/30 07:27:21;;;;;;;32.47;4.15;;;6.50;86.70;;;;;;4937635;29;20058;-71
2022/01/30 07:29:46;;;;;;;29.27;5.13;;;6.50;85.80;;;;;;4960078;28;20035;-71
2022/01/30 07:32:12;;;;;;;30.13;5.87;;;6.50;84.60;;;;;;4947994;28;20089;-72
2022/01/30 07:34:37;;;;;;;30.33;5.93;;;6.50;83.80;;;;;;4940374;28;20034;-72
2022/01/30 07:37:04;;;;;;;30.77;5.33;;;6.40;84.40;;;;;;4959934;28;20405;-72
2022/01/30 07:39:31;;;;;;;28.45;5.50;;;6.50;84.30;;;;;;4965737;28;20038;-71
2022/01/30 07:41:57;;;;;;;31.05;6.07;;;6.40;84.90;;;;;;4945198;28;20556;-72
2022/01/30 07:44:23;;;;;;;35.70;6.70;;;6.40;84.90;;;;;;4929887;28;20031;-72
2022/01/30 07:46:48;;;;;;;30.80;6.35;;;6.50;85.00;;;;;;4952957;28;20436;-72
2022/01/30 07:49:14;;;;;;;36.93;5.93;;;6.50;85.70;;;;;;4945857;28;20130;-72
2022/01/30 07:51:39;;;;;;;40.67;5.53;;;6.50;85.40;;;;;;4939202;28;20059;-72
2022/01/30 07:54:05;;;;;;;42.13;6.60;;;6.40;85.80;;;;;;4940324;28;20502;-72
2022/01/30 07:56:31;;;;;;;32.90;4.37;;;6.40;86.50;;;;;;4947700;28;20663;-72
2022/01/30 07:58:57;;;;;;;35.95;5.97;;;6.40;85.90;;;;;;4939956;28;20672;-72
2022/01/30 08:01:22;;;;;;;27.93;6.13;;;6.30;85.80;;;;;;4958120;28;20035;-71
2022/01/30 08:03:48;;;;;;;44.60;6.40;;;6.30;85.60;;;;;;4938136;28;20058;-72
2022/01/30 08:06:14;;;;;;;21.70;5.70;;;6.30;85.50;;;;;;4935538;28;20510;-73
2022/01/30 08:08:39;;;;;;;26.40;4.90;;;6.30;84.40;;;;;;4937222;28;20460;-72
2022/01/30 08:11:08;;;;;;;23.00;6.77;;;6.20;84.70;;;;;;4958176;28;20070;-72
2022/01/30 08:13:33;;;;;;;31.25;7.35;;;6.20;84.40;;;;;;4955560;28;20057;-71
2022/01/30 08:15:59;;;;;;;36.60;6.00;;;6.10;84.30;;;;;;4959155;28;20035;-72
2022/01/30 08:18:25;;;;;;;23.80;4.90;;;6.10;83.80;;;;;;4949758;28;20129;-72
2022/01/30 08:20:50;;;;;;;32.10;5.07;;;6.10;83.40;;;;;;4920691;28;20039;-72
2022/01/30 08:23:18;;;;;;;26.73;5.13;;;6.10;81.90;;;;;;4939704;28;20049;-72
2022/01/30 08:25:44;;;;;;;29.20;4.13;;;6.20;80.50;;;;;;4938933;28;20042;-72
2022/01/30 08:28:34;;;;;;;35.47;5.50;;;6.20;80.00;;;;;;4982204;23;20054;-85
2022/01/30 08:31:57;;;;;;;;;;;;;;;;;;;;;
2022/01/30 08:35:28;;;;;;;40.83;7.47;;;6.20;79.40;;;;;;4985184;28;20113;-85
2022/01/30 08:38:42;;;;;;;;;;;;;;;;;;;;;
2022/01/30 08:42:14;;;;;;;32.03;6.03;;;6.30;78.00;;;;;;4988760;28;20042;-85
2022/01/30 08:44:57;;;;;;;33.10;5.00;;;6.20;77.60;;;;;;4917657;28;20043;-84
2022/01/30 08:48:15;;;;;;;;;;;;;;;;;;;;;
2022/01/30 08:51:33;;;;;;;20.48;5.65;;;6.20;76.90;;;;;;4986787;28;20116;-86
2022/01/30 08:58:35;;;;;;;;;;;;;;;;;;;;;
2022/01/30 09:04:45;;;;;;;24.17;4.47;;;6.10;76.80;;;;;;4983123;28;20054;-85
2022/01/30 09:07:33;;;;;;;32.55;5.22;;;6.20;76.20;;;;;;4983622;23;20118;-69
2022/01/30 09:09:58;;;;;;;30.77;6.07;;;6.30;75.90;;;;;;4956490;28;20085;-69
2022/01/30 09:12:24;;;;;;;34.60;4.43;;;6.30;75.70;;;;;;4921488;28;20032;-69
2022/01/30 09:14:50;;;;;;;33.70;6.05;;;6.40;75.60;;;;;;4934186;28;20058;-69
2022/01/30 09:17:16;;;;;;;22.92;4.38;;;6.40;75.90;;;;;;4949803;28;20408;-68
2022/01/30 09:19:45;;;;;;;35.45;6.28;;;6.40;76.60;;;;;;4939767;28;20149;-69
2022/01/30 09:22:13;;;;;;;34.38;5.00;;;6.40;77.30;;;;;;4935977;28;20436;-68
2022/01/30 09:24:39;;;;;;;22.98;5.50;;;6.50;76.60;;;;;;4936632;28;20047;-69
2022/01/30 09:27:07;;;;;;;31.30;5.30;;;6.60;77.10;;;;;;4953060;28;20035;-69
2022/01/30 09:29:34;;;;;;;37.45;6.20;;;6.60;77.90;;;;;;4920303;28;20054;-68
2022/01/30 09:32:02;;;;;;;36.92;5.68;;;6.60;78.20;;;;;;4938495;28;20068;-68
2022/01/30 09:34:28;;;;;;;33.05;5.88;;;6.60;79.00;;;;;;4954039;28;20050;-69
2022/01/30 09:36:54;;;;;;;37.60;5.90;;;6.70;79.20;;;;;;4957813;28;20046;-68
2022/01/30 09:39:20;;;;;;;33.20;7.18;;;6.80;79.90;;;;;;4954944;28;20097;-68
2022/01/30 09:41:49;;;;;;;37.22;6.93;;;6.80;80.20;;;;;;4940857;28;20062;-68
2022/01/30 09:44:17;;;;;;;31.77;5.18;;;6.90;80.10;;;;;;4961709;28;20042;-69
2022/01/30 09:46:44;;;;;;;31.52;5.63;;;7.00;80.30;;;;;;4939496;28;20049;-69
2022/01/30 09:49:11;;;;;;;35.42;6.47;;;7.10;80.40;;;;;;4939477;28;20475;-69
2022/01/30 09:51:43;;;;;;;30.00;6.57;;;7.10;81.10;;;;;;4953620;28;20077;-67
2022/01/30 09:54:11;;;;;;;35.08;6.65;;;7.10;81.20;;;;;;4959158;28;20105;-67
2022/01/30 09:56:36;;;;;;;32.40;6.78;;;7.10;81.50;;;;;;4965435;28;20082;-74
2022/01/30 09:59:04;;;;;;;35.43;7.00;;;7.10;81.80;;;;;;4935307;28;20081;-69
2022/01/30 10:01:33;;;;;;;35.90;6.15;;;7.10;82.20;;;;;;4953704;28;20488;-72
2022/01/30 10:03:59;;;;;;;41.85;6.30;;;7.10;81.50;;;;;;4952331;28;20107;-68
2022/01/30 10:06:30;;;;;;;37.00;5.57;;;7.10;80.90;;;;;;4957373;28;20403;-68
2022/01/30 10:08:57;;;;;;;36.08;5.00;;;7.10;81.10;;;;;;4953130;28;20142;-68
2022/01/30 10:11:27;;;;;;;31.25;6.30;;;7.20;79.90;;;;;;4942123;28;20081;-70
2022/01/30 10:14:03;;;;;;;30.65;6.90;;;7.20;79.30;;;;;;4960658;28;20050;-68
2022/01/30 10:16:36;;;;;;;28.08;5.25;;;7.20;79.40;;;;;;4940564;28;20054;-68
2022/01/30 10:19:10;;;;;;;38.40;6.07;;;7.20;79.20;;;;;;4963412;28;20058;-68
2022/01/30 10:21:36;;;;;;;34.15;5.43;;;7.40;77.60;;;;;;4962265;28;20112;-70
2022/01/30 10:24:20;;;;;;;35.58;6.28;;;7.50;77.90;;;;;;4939389;28;20439;-70
2022/01/30 10:26:46;;;;;;;29.60;5.53;;;7.60;77.40;;;;;;4963750;28;20333;-68
2022/01/30 10:29:23;;;;;;;28.58;4.90;;;7.60;77.20;;;;;;4953841;28;20062;-67
2022/01/30 10:32:09;;;;;;;25.55;5.22;;;7.60;76.10;;;;;;4965450;28;20043;-67
2022/01/30 10:34:37;;;;;;;32.45;4.72;;;7.60;75.50;;;;;;4943423;28;20160;-70
2022/01/30 10:37:22;;;;;;;28.52;6.30;;;7.60;76.10;;;;;;4943188;28;20188;-69
2022/01/30 10:39:56;;;;;;;29.20;4.97;;;7.50;76.30;;;;;;4928331;28;20106;-70
2022/01/30 10:42:42;;;;;;;36.22;6.72;;;7.40;76.10;;;;;;4956088;28;20467;-70
2022/01/30 10:45:19;;;;;;;27.48;4.88;;;7.40;76.90;;;;;;4916591;28;20046;-69
2022/01/30 10:47:45;;;;;;;43.43;5.73;;;7.40;77.20;;;;;;4960462;28;20075;-71
2022/01/30 10:50:16;;;;;;;;;;;7.40;77.10;;;;;;4952343;28;21625;-70
2022/01/30 10:52:56;;;;;;;30.58;5.15;;;7.30;76.80;;;;;;4960399;28;19922;-70
2022/01/30 10:55:39;;;;;;;32.03;5.13;;;7.30;77.20;;;;;;4936937;28;20369;-70
2022/01/30 10:58:07;;;;;;;28.73;4.50;;;7.30;77.30;;;;;;4947173;28;20142;-79
2022/01/30 11:00:41;;;;;;;38.40;6.55;;;7.30;76.80;;;;;;4930235;28;20073;-69
2022/01/30 11:03:09;;;;;;;29.10;4.72;;;7.40;76.30;;;;;;4936769;28;20069;-70
2022/01/30 11:05:56;;;;;;;28.13;4.07;;;7.50;74.90;;;;;;4953400;28;20047;-74
2022/01/30 11:08:23;;;;;;;30.10;4.45;;;7.60;73.90;;;;;;4952090;28;20089;-71
2022/01/30 11:10:59;;;;;;;35.15;5.65;;;7.60;72.10;;;;;;4962436;28;20365;-69
2022/01/30 11:13:32;;;;;;;28.05;4.25;;;7.60;70.90;;;;;;4952752;28;20038;-70
2022/01/30 11:18:50;;;;;;;16.70;4.03;;;7.70;71.30;;;;;;4938226;28;20126;-72
2022/01/30 11:21:22;;;;;;;29.60;4.35;;;7.70;71.50;;;;;;4936370;28;20551;-71
2022/01/30 11:23:51;;;;;;;32.88;4.80;;;7.80;71.80;;;;;;4940151;28;20055;-69
2022/01/30 11:26:18;;;;;;;15.95;4.07;;;7.80;71.00;;;;;;4947527;28;20176;-69
2022/01/30 11:28:45;;;;;;;25.95;4.55;;;7.80;71.20;;;;;;4958986;28;20484;-69
2022/01/30 11:31:16;;;;;;;28.40;4.97;;;7.90;71.20;;;;;;4960904;28;20089;-69
2022/01/30 11:33:45;;;;;;;30.83;5.38;;;8.00;71.40;;;;;;4958902;28;20447;-69
2022/01/30 11:36:12;;;;;;;21.48;3.30;;;8.00;70.80;;;;;;4937239;28;20729;-69
2022/01/30 11:38:40;;;;;;;24.08;3.78;;;8.00;70.60;;;;;;4955199;28;20075;-69
2022/01/30 11:41:17;;;;;;;24.35;4.43;;;8.10;70.90;;;;;;4944381;28;20086;-69
2022/01/30 11:44:17;;;;;;;21.67;3.83;;;8.10;71.10;;;;;;4957444;28;20046;-69
2022/01/30 11:46:53;;;;;;;24.92;4.13;;;8.20;69.80;;;;;;4952182;28;20400;-69
2022/01/30 11:49:19;;;;;;;25.55;3.55;;;8.30;69.70;;;;;;4960972;28;20070;-69
2022/01/30 11:51:49;;;;;;;29.88;5.43;;;8.40;69.20;;;;;;4956729;28;20031;-69
2022/01/30 11:54:38;;;;;;;25.30;4.45;;;8.50;70.20;;;;;;4965014;28;20559;-69
2022/01/30 11:57:27;;;;;;;27.95;5.05;;;8.60;69.40;;;;;;4933773;28;20461;-69
2022/01/30 12:00:00;;;;;;;31.88;4.63;;;8.70;69.60;;;;;;4953464;28;20048;-69
2022/01/30 12:02:33;;;;;;;31.98;7.00;;;8.60;69.70;;;;;;4957949;28;20205;-69
2022/01/30 12:05:02;;;;;;;24.83;5.10;;;8.50;70.00;;;;;;4959218;28;20583;-69
2022/01/30 12:07:35;;;;;;;27.63;5.55;;;8.40;70.40;;;;;;4941682;28;20039;-69
2022/01/30 12:10:16;;;;;;;28.50;5.50;;;8.30;70.10;;;;;;4942886;28;20429;-69
2022/01/30 12:12:53;;;;;;;25.70;4.60;;;8.30;70.60;;;;;;4960857;28;20479;-75
2022/01/30 12:15:34;;;;;;;24.90;5.40;;;8.20;71.70;;;;;;4934461;29;20047;-69
2022/01/30 12:18:01;;;;;;;29.90;4.53;;;8.20;71.60;;;;;;4963274;28;20043;-72
2022/01/30 12:20:30;;;;;;;40.95;5.75;;;8.10;71.90;;;;;;4950000;28;20047;-71
2022/01/30 12:22:56;;;;;;;25.27;4.05;;;8.10;72.30;;;;;;4952156;28;20464;-67
2022/01/30 12:25:34;;;;;;;;;;;8.10;71.80;;;;;;4945940;28;20042;-67
2022/01/30 12:28:02;;;;;;;29.98;5.53;;;8.10;71.50;;;;;;4959772;28;20323;-67
2022/01/30 12:30:35;;;;;;;25.00;4.72;;;8.00;72.20;;;;;;4965735;28;20162;-68
2022/01/30 12:33:02;;;;;;;31.52;4.93;;;8.00;72.60;;;;;;4947703;28;20035;-70
2022/01/30 12:35:29;;;;;;;36.17;6.32;;;8.10;72.00;;;;;;4966249;28;20042;-67
2022/01/30 12:37:57;;;;;;;26.27;4.25;;;8.20;72.20;;;;;;4965351;28;20042;-68
2022/01/30 12:40:23;;;;;;;25.95;5.15;;;8.30;71.70;;;;;;4964090;28;20032;-69
2022/01/30 12:42:49;;;;;;;36.92;6.40;;;8.40;71.10;;;;;;4944128;28;20073;-71
2022/01/30 12:45:16;;;;;;;31.70;4.67;;;8.60;71.20;;;;;;4945975;28;20055;-71
2022/01/30 12:47:52;;;;;;;27.00;3.47;;;8.70;70.70;;;;;;4946537;28;20577;-68
2022/01/30 12:50:20;;;;;;;18.50;3.97;;;8.70;68.00;;;;;;4948347;28;20038;-69
2022/01/30 12:52:51;;;;;;;18.55;3.97;;;8.70;67.10;;;;;;4966800;28;20050;-68
2022/01/30 12:55:22;;;;;;;27.98;3.78;;;8.60;66.60;;;;;;4932156;28;20528;-67
2022/01/30 12:57:51;;;;;;;26.65;5.15;;;8.40;66.80;;;;;;4929984;28;20042;-67
2022/01/30 13:00:17;;;;;;;27.55;4.30;;;8.30;67.80;;;;;;4964270;28;20395;-69
2022/01/30 13:03:00;;;;;;;14.50;4.10;;;8.40;68.20;;;;;;4943306;28;20050;-68
2022/01/30 13:05:28;;;;;;;25.02;4.55;;;8.40;68.40;;;;;;4948003;28;20060;-73
2022/01/30 13:07:56;;;;;;;23.80;4.25;;;8.40;67.50;;;;;;4944545;28;20093;-76
2022/01/30 13:10:23;;;;;;;28.13;4.82;;;8.30;68.20;;;;;;4944610;28;20122;-67
2022/01/30 13:12:50;;;;;;;21.85;4.63;;;8.30;68.50;;;;;;4961633;28;20050;-76
2022/01/30 13:15:22;;;;;;;25.48;4.40;;;8.20;67.70;;;;;;4939460;28;20039;-67
2022/01/30 13:17:49;;;;;;;27.25;3.65;;;8.10;67.80;;;;;;4959000;28;20135;-75
2022/01/30 13:20:20;;;;;;;21.73;4.22;;;8.00;68.30;;;;;;4942395;28;20361;-75
2022/01/30 13:22:45;;;;;;;29.85;4.65;;;7.90;69.00;;;;;;4949660;28;20480;-72
2022/01/30 13:25:16;;;;;;;34.67;6.53;;;7.80;69.50;;;;;;4947629;28;20090;-76
2022/01/30 13:27:49;;;;;;;32.40;5.53;;;7.80;70.30;;;;;;4941974;28;20058;-68
2022/01/30 13:30:21;;;;;;;26.23;4.65;;;7.80;70.90;;;;;;4957697;28;20043;-67
2022/01/30 13:32:47;;;;;;;35.38;7.07;;;7.80;71.60;;;;;;4956733;28;20046;-67
2022/01/30 13:35:14;;;;;;;27.67;5.27;;;7.70;71.70;;;;;;4951680;28;20385;-69
2022/01/30 13:37:41;;;;;;;28.15;4.68;;;7.60;72.00;;;;;;4965755;28;20122;-67
2022/01/30 13:43:04;;;;;;;39.05;4.65;;;7.60;72.70;;;;;;4961707;28;20081;-67
2022/01/30 13:48:02;;;;;;;24.33;4.75;;;7.70;73.50;;;;;;4958870;28;20042;-73
2022/01/30 13:50:49;;;;;;;21.15;4.07;;;7.60;73.20;;;;;;4944295;28;20117;-69
2022/01/30 13:53:21;;;;;;;19.23;3.70;;;7.60;73.40;;;;;;4934446;28;20061;-74
2022/01/30 13:55:52;;;;;;;30.63;5.47;;;7.60;73.80;;;;;;4942730;28;20231;-69
2022/01/30 13:58:20;;;;;;;22.63;4.18;;;7.50;74.20;;;;;;4938777;28;20078;-71
2022/01/30 14:00:47;;;;;;;25.42;5.28;;;7.50;74.30;;;;;;4958451;28;20423;-67
2022/01/30 14:03:25;;;;;;;24.75;4.13;;;7.50;74.40;;;;;;4951782;28;20439;-67
2022/01/30 14:05:51;;;;;;;26.75;6.32;;;7.50;74.70;;;;;;4963249;28;22485;-67
2022/01/30 14:08:21;;;;;;;39.60;6.13;;;7.60;74.40;;;;;;4957460;28;20050;-67
2022/01/30 14:10:49;;;;;;;31.98;7.13;;;7.60;73.80;;;;;;4961098;28;20038;-67
2022/01/30 14:13:23;;;;;;;22.73;4.47;;;7.70;73.80;;;;;;4961860;28;20197;-67